createdAt,value
2018-10-20T00:00:06.419Z,1013.9
2018-10-20T00:01:07.860Z,1013.9
2018-10-20T00:02:09.204Z,1013.8
2018-10-20T00:03:10.590Z,1013.8
2018-10-20T00:04:11.975Z,1013.8
2018-10-20T00:05:13.427Z,1013.8
2018-10-20T00:06:14.751Z,1013.8
2018-10-20T00:07:16.233Z,1013.9
2018-10-20T00:08:17.493Z,1013.9
2018-10-20T00:09:18.884Z,1013.9
2018-10-20T00:10:20.274Z,1013.9
2018-10-20T00:11:21.663Z,1013.9
2018-10-20T00:12:23.051Z,1013.9
2018-10-20T00:13:24.441Z,1013.9
2018-10-20T00:14:25.829Z,1013.9
2018-10-20T00:15:27.216Z,1013.8
2018-10-20T00:16:28.609Z,1013.9
2018-10-20T00:17:29.996Z,1013.9
2018-10-20T00:18:31.389Z,1013.9
2018-10-20T00:19:32.782Z,1013.9
2018-10-20T00:20:34.324Z,1013.8
2018-10-20T00:21:35.760Z,1013.8
2018-10-20T00:22:37.147Z,1013.8
2018-10-20T00:23:38.537Z,1013.8
2018-10-20T00:24:39.923Z,1013.8
2018-10-20T00:25:41.315Z,1013.9
2018-10-20T00:26:42.716Z,1013.9
2018-10-20T00:27:44.092Z,1013.9
2018-10-20T00:28:45.537Z,1013.9
2018-10-20T00:29:46.879Z,1013.9
2018-10-20T00:30:48.269Z,1013.9
2018-10-20T00:31:49.657Z,1014.0
2018-10-20T00:32:51.044Z,1013.9
2018-10-20T00:33:52.458Z,1014.0
2018-10-20T00:34:53.822Z,1013.9
2018-10-20T00:35:55.211Z,1014.0
2018-10-20T00:36:56.609Z,1013.9
2018-10-20T00:37:57.990Z,1013.9
2018-10-20T00:38:59.428Z,1013.9
2018-10-20T00:40:00.784Z,1013.9
2018-10-20T00:41:02.166Z,1013.9
2018-10-20T00:42:03.553Z,1013.9
2018-10-20T00:43:04.992Z,1013.8
2018-10-20T00:44:06.327Z,1013.8
2018-10-20T00:45:07.721Z,1013.8
2018-10-20T00:46:09.176Z,1013.8
2018-10-20T00:47:10.495Z,1013.8
2018-10-20T00:48:11.881Z,1013.8
2018-10-20T00:49:13.336Z,1013.7
2018-10-20T00:50:14.654Z,1013.8
2018-10-20T00:51:16.042Z,1013.8
2018-10-20T00:52:17.566Z,1013.8
2018-10-20T00:53:18.819Z,1013.8
2018-10-20T00:54:20.213Z,1013.7
2018-10-20T00:55:21.606Z,1013.8
2018-10-20T00:56:22.991Z,1013.8
2018-10-20T00:57:24.384Z,1013.7
2018-10-20T00:58:25.768Z,1013.7
2018-10-20T00:59:27.160Z,1013.8
2018-10-20T01:00:28.551Z,1013.8
2018-10-20T01:01:29.936Z,1013.8
2018-10-20T01:02:31.324Z,1013.8
2018-10-20T01:03:32.716Z,1013.8
2018-10-20T01:04:34.108Z,1013.8
2018-10-20T01:05:35.502Z,1013.8
2018-10-20T01:06:36.889Z,1013.8
2018-10-20T01:07:38.275Z,1013.8
2018-10-20T01:08:39.664Z,1013.8
2018-10-20T01:09:41.055Z,1013.8
2018-10-20T01:10:42.608Z,1013.9
2018-10-20T01:11:44.011Z,1013.8
2018-10-20T01:12:45.402Z,1013.9
2018-10-20T01:13:46.792Z,1013.9
2018-10-20T01:14:48.176Z,1014.0
2018-10-20T01:15:49.567Z,1014.0
2018-10-20T01:16:50.963Z,1014.0
2018-10-20T01:17:52.350Z,1014.0
2018-10-20T01:18:53.755Z,1014.1
2018-10-20T01:19:55.131Z,1014.1
2018-10-20T01:20:56.523Z,1014.1
2018-10-20T01:21:57.957Z,1014.2
2018-10-20T01:22:59.293Z,1014.2
2018-10-20T01:24:00.679Z,1014.2
2018-10-20T01:25:02.097Z,1014.1
2018-10-20T01:26:03.454Z,1014.2
2018-10-20T01:27:04.841Z,1014.2
2018-10-20T01:28:06.252Z,1014.3
2018-10-20T01:29:07.621Z,1014.3
2018-10-20T01:30:09.007Z,1014.4
2018-10-20T01:31:10.398Z,1014.4
2018-10-20T01:32:11.779Z,1014.4
2018-10-20T01:33:13.166Z,1014.5
2018-10-20T01:34:14.615Z,1014.5
2018-10-20T01:35:15.947Z,1014.5
2018-10-20T01:36:17.336Z,1014.5
2018-10-20T01:37:18.730Z,1014.5
2018-10-20T01:38:20.113Z,1014.5
2018-10-20T01:39:21.500Z,1014.5
2018-10-20T01:40:22.887Z,1014.5
2018-10-20T01:41:24.279Z,1014.4
2018-10-20T01:42:25.675Z,1014.4
2018-10-20T01:43:27.063Z,1014.3
2018-10-20T01:44:28.447Z,1014.3
2018-10-20T01:45:29.835Z,1014.4
2018-10-20T01:46:31.263Z,1014.4
2018-10-20T01:47:32.651Z,1014.5
2018-10-20T01:48:34.043Z,1014.5
2018-10-20T01:49:35.432Z,1014.6
2018-10-20T01:50:36.817Z,1014.6
2018-10-20T01:51:38.204Z,1014.6
2018-10-20T01:52:39.622Z,1014.7
2018-10-20T01:53:40.984Z,1014.7
2018-10-20T01:54:42.376Z,1014.6
2018-10-20T01:55:43.765Z,1014.7
2018-10-20T01:56:45.151Z,1014.7
2018-10-20T01:57:46.543Z,1014.6
2018-10-20T01:58:47.913Z,1014.6
2018-10-20T01:59:49.298Z,1014.6
2018-10-20T02:00:50.781Z,1014.5
2018-10-20T02:01:52.195Z,1014.5
2018-10-20T02:02:53.584Z,1014.5
2018-10-20T02:03:55.028Z,1014.5
2018-10-20T02:04:56.356Z,1014.4
2018-10-20T02:05:57.746Z,1014.4
2018-10-20T02:06:59.141Z,1014.5
2018-10-20T02:08:00.523Z,1014.5
2018-10-20T02:09:01.910Z,1014.5
2018-10-20T02:10:03.326Z,1014.6
2018-10-20T02:11:04.685Z,1014.6
2018-10-20T02:12:06.077Z,1014.6
2018-10-20T02:13:07.502Z,1014.6
2018-10-20T02:14:08.853Z,1014.7
2018-10-20T02:15:10.240Z,1014.7
2018-10-20T02:16:11.707Z,1014.8
2018-10-20T02:17:13.026Z,1014.8
2018-10-20T02:18:14.412Z,1014.8
2018-10-20T02:19:15.830Z,1014.8
2018-10-20T02:20:17.181Z,1014.8
2018-10-20T02:21:18.568Z,1014.8
2018-10-20T02:22:19.962Z,1014.7
2018-10-20T02:23:21.346Z,1014.7
2018-10-20T02:24:22.738Z,1014.8
2018-10-20T02:25:24.127Z,1014.8
2018-10-20T02:26:25.516Z,1014.9
2018-10-20T02:27:26.898Z,1014.9
2018-10-20T02:28:28.286Z,1014.9
2018-10-20T02:29:29.669Z,1014.9
2018-10-20T02:30:31.056Z,1014.8
2018-10-20T02:31:32.446Z,1014.9
2018-10-20T02:32:33.832Z,1014.9
2018-10-20T02:33:35.220Z,1014.8
2018-10-20T02:34:36.608Z,1014.9
2018-10-20T02:35:37.994Z,1014.9
2018-10-20T02:36:39.378Z,1014.9
2018-10-20T02:37:40.767Z,1014.9
2018-10-20T02:38:42.153Z,1014.9
2018-10-20T02:39:43.540Z,1014.9
2018-10-20T02:40:44.925Z,1014.9
2018-10-20T02:41:46.312Z,1014.9
2018-10-20T02:42:47.694Z,1014.9
2018-10-20T02:43:49.078Z,1015.0
2018-10-20T02:44:50.467Z,1014.9
2018-10-20T02:45:51.850Z,1015.0
2018-10-20T02:46:53.240Z,1015.0
2018-10-20T02:47:54.624Z,1015.0
2018-10-20T02:48:56.027Z,1015.0
2018-10-20T02:49:57.394Z,1015.0
2018-10-20T02:50:58.951Z,1015.0
2018-10-20T02:52:00.393Z,1015.0
2018-10-20T02:53:01.758Z,1015.0
2018-10-20T02:54:03.147Z,1015.1
2018-10-20T02:55:04.582Z,1015.1
2018-10-20T02:56:05.914Z,1015.0
2018-10-20T02:57:07.298Z,1015.0
2018-10-20T02:58:08.716Z,1014.9
2018-10-20T02:59:10.072Z,1014.9
2018-10-20T03:00:11.463Z,1014.9
2018-10-20T03:01:12.880Z,1015.0
2018-10-20T03:02:14.234Z,1014.9
2018-10-20T03:03:15.620Z,1014.9
2018-10-20T03:04:17.046Z,1014.9
2018-10-20T03:05:18.394Z,1014.9
2018-10-20T03:06:19.783Z,1014.9
2018-10-20T03:07:21.178Z,1014.9
2018-10-20T03:08:22.576Z,1014.8
2018-10-20T03:09:23.964Z,1014.8
2018-10-20T03:10:25.350Z,1014.8
2018-10-20T03:11:26.737Z,1014.9
2018-10-20T03:12:28.123Z,1014.8
2018-10-20T03:13:29.509Z,1014.8
2018-10-20T03:14:30.894Z,1014.7
2018-10-20T03:15:32.288Z,1014.8
2018-10-20T03:16:33.678Z,1014.8
2018-10-20T03:17:35.064Z,1014.8
2018-10-20T03:18:36.452Z,1014.8
2018-10-20T03:19:37.846Z,1014.7
2018-10-20T03:20:39.229Z,1014.7
2018-10-20T03:21:40.618Z,1014.7
2018-10-20T03:22:42.007Z,1014.8
2018-10-20T03:23:43.399Z,1014.8
2018-10-20T03:24:44.783Z,1014.7
2018-10-20T03:25:46.191Z,1014.7
2018-10-20T03:26:47.563Z,1014.8
2018-10-20T03:27:48.949Z,1014.8
2018-10-20T03:28:50.340Z,1014.9
2018-10-20T03:29:51.732Z,1014.9
2018-10-20T03:30:53.211Z,1014.9
2018-10-20T03:31:54.560Z,1014.9
2018-10-20T03:32:55.938Z,1014.9
2018-10-20T03:33:57.379Z,1014.9
2018-10-20T03:34:58.715Z,1014.9
2018-10-20T03:36:00.109Z,1014.9
2018-10-20T03:37:01.559Z,1014.9
2018-10-20T03:38:02.876Z,1014.8
2018-10-20T03:39:04.261Z,1014.8
2018-10-20T03:40:05.728Z,1014.8
2018-10-20T03:41:07.188Z,1014.7
2018-10-20T03:42:08.579Z,1014.7
2018-10-20T03:43:10.032Z,1014.7
2018-10-20T03:44:11.350Z,1014.7
2018-10-20T03:45:12.734Z,1014.8
2018-10-20T03:46:14.182Z,1014.8
2018-10-20T03:47:15.503Z,1014.7
2018-10-20T03:48:16.892Z,1014.8
2018-10-20T03:49:18.361Z,1014.8
2018-10-20T03:50:19.669Z,1014.7
2018-10-20T03:51:21.055Z,1014.8
2018-10-20T03:52:22.443Z,1014.8
2018-10-20T03:53:23.825Z,1014.8
2018-10-20T03:54:25.220Z,1014.8
2018-10-20T03:55:26.606Z,1014.8
2018-10-20T03:56:27.991Z,1014.9
2018-10-20T03:57:29.382Z,1015.0
2018-10-20T03:58:30.772Z,1015.0
2018-10-20T03:59:32.153Z,1015.0
2018-10-20T04:00:33.539Z,1015.1
2018-10-20T04:01:34.923Z,1015.1
2018-10-20T04:02:36.313Z,1015.1
2018-10-20T04:03:37.699Z,1015.2
2018-10-20T04:04:39.101Z,1015.1
2018-10-20T04:05:40.490Z,1015.1
2018-10-20T04:06:41.872Z,1015.2
2018-10-20T04:07:43.255Z,1015.2
2018-10-20T04:08:44.642Z,1015.2
2018-10-20T04:09:46.029Z,1015.2
2018-10-20T04:10:47.415Z,1015.2
2018-10-20T04:11:48.805Z,1015.2
2018-10-20T04:12:50.200Z,1015.3
2018-10-20T04:13:51.586Z,1015.2
2018-10-20T04:14:52.970Z,1015.2
2018-10-20T04:15:54.408Z,1015.2
2018-10-20T04:16:55.747Z,1015.2
2018-10-20T04:17:57.158Z,1015.3
2018-10-20T04:18:58.533Z,1015.3
2018-10-20T04:19:59.901Z,1015.2
2018-10-20T04:21:01.287Z,1015.2
2018-10-20T04:22:02.732Z,1015.2
2018-10-20T04:23:04.064Z,1015.3
2018-10-20T04:24:05.454Z,1015.4
2018-10-20T04:25:06.886Z,1015.4
2018-10-20T04:26:08.242Z,1015.5
2018-10-20T04:27:09.621Z,1015.5
2018-10-20T04:28:11.068Z,1015.6
2018-10-20T04:29:12.390Z,1015.5
2018-10-20T04:30:13.773Z,1015.6
2018-10-20T04:31:15.455Z,1015.5
2018-10-20T04:32:16.801Z,1015.6
2018-10-20T04:33:18.186Z,1015.7
2018-10-20T04:34:19.618Z,1015.7
2018-10-20T04:35:20.962Z,1015.7
2018-10-20T04:36:22.357Z,1015.7
2018-10-20T04:37:23.744Z,1015.8
2018-10-20T04:38:25.130Z,1015.8
2018-10-20T04:39:26.520Z,1015.8
2018-10-20T04:40:27.910Z,1015.7
2018-10-20T04:41:29.295Z,1015.8
2018-10-20T04:42:30.682Z,1015.8
2018-10-20T04:43:32.065Z,1015.8
2018-10-20T04:44:33.454Z,1015.8
2018-10-20T04:45:34.839Z,1015.7
2018-10-20T04:46:36.224Z,1015.8
2018-10-20T04:47:37.613Z,1015.8
2018-10-20T04:48:39.000Z,1015.8
2018-10-20T04:49:40.411Z,1015.7
2018-10-20T04:50:41.771Z,1015.7
2018-10-20T04:51:43.157Z,1015.7
2018-10-20T04:52:44.543Z,1015.7
2018-10-20T04:53:45.930Z,1015.7
2018-10-20T04:54:47.316Z,1015.7
2018-10-20T04:55:48.809Z,1015.7
2018-10-20T04:56:50.286Z,1015.7
2018-10-20T04:57:51.815Z,1015.7
2018-10-20T04:58:53.229Z,1015.7
2018-10-20T04:59:54.741Z,1015.7
2018-10-20T05:00:56.109Z,1015.7
2018-10-20T05:01:57.386Z,1015.8
2018-10-20T05:02:58.773Z,1015.8
2018-10-20T05:04:00.191Z,1015.8
2018-10-20T05:05:01.544Z,1015.8
2018-10-20T05:06:03.105Z,1015.9
2018-10-20T05:07:04.551Z,1015.9
2018-10-20T05:08:05.874Z,1015.9
2018-10-20T05:09:07.266Z,1015.9
2018-10-20T05:10:08.725Z,1016.0
2018-10-20T05:11:10.043Z,1016.0
2018-10-20T05:12:11.429Z,1016.0
2018-10-20T05:13:12.908Z,1016.1
2018-10-20T05:14:14.218Z,1016.1
2018-10-20T05:15:15.608Z,1016.1
2018-10-20T05:16:17.361Z,1016.2
2018-10-20T05:17:18.692Z,1016.2
2018-10-20T05:18:20.081Z,1016.2
2018-10-20T05:19:21.465Z,1016.2
2018-10-20T05:20:22.961Z,1016.2
2018-10-20T05:21:24.478Z,1016.2
2018-10-20T05:22:25.870Z,1016.3
2018-10-20T05:23:27.259Z,1016.3
2018-10-20T05:24:28.652Z,1016.2
2018-10-20T05:25:30.053Z,1016.2
2018-10-20T05:26:31.434Z,1016.2
2018-10-20T05:27:32.817Z,1016.2
2018-10-20T05:28:34.207Z,1016.2
2018-10-20T05:29:35.604Z,1016.2
2018-10-20T05:30:36.992Z,1016.3
2018-10-20T05:31:38.491Z,1016.3
2018-10-20T05:32:39.932Z,1016.2
2018-10-20T05:33:41.303Z,1016.2
2018-10-20T05:34:42.697Z,1016.1
2018-10-20T05:35:44.087Z,1016.1
2018-10-20T05:36:45.475Z,1016.1
2018-10-20T05:37:46.860Z,1016.0
2018-10-20T05:38:48.252Z,1016.1
2018-10-20T05:39:49.635Z,1016.1
2018-10-20T05:40:51.019Z,1016.1
2018-10-20T05:41:52.421Z,1016.1
2018-10-20T05:42:53.816Z,1016.0
2018-10-20T05:43:55.200Z,1016.0
2018-10-20T05:44:56.592Z,1016.0
2018-10-20T05:45:58.025Z,1016.0
2018-10-20T05:46:59.385Z,1016.0
2018-10-20T05:48:00.779Z,1016.0
2018-10-20T05:49:02.220Z,1016.0
2018-10-20T05:50:03.588Z,1016.0
2018-10-20T05:51:04.974Z,1016.0
2018-10-20T05:52:06.413Z,1016.0
2018-10-20T05:53:07.754Z,1016.0
2018-10-20T05:54:09.154Z,1016.0
2018-10-20T05:55:10.636Z,1016.0
2018-10-20T05:56:11.907Z,1016.0
2018-10-20T05:57:13.347Z,1016.1
2018-10-20T05:58:14.832Z,1016.1
2018-10-20T05:59:16.145Z,1016.2
2018-10-20T06:00:17.536Z,1016.3
2018-10-20T06:01:18.952Z,1016.4
2018-10-20T06:02:20.312Z,1016.4
2018-10-20T06:03:21.700Z,1016.4
2018-10-20T06:04:23.105Z,1016.4
2018-10-20T06:05:24.509Z,1016.5
2018-10-20T06:06:25.900Z,1016.4
2018-10-20T06:07:27.658Z,1016.5
2018-10-20T06:08:29.095Z,1016.5
2018-10-20T06:09:30.558Z,1016.5
2018-10-20T06:10:32.130Z,1016.5
2018-10-20T06:11:33.473Z,1016.5
2018-10-20T06:12:34.852Z,1016.5
2018-10-20T06:13:36.238Z,1016.5
2018-10-20T06:14:37.627Z,1016.5
2018-10-20T06:15:39.011Z,1016.5
2018-10-20T06:16:40.408Z,1016.5
2018-10-20T06:17:41.796Z,1016.5
2018-10-20T06:18:43.195Z,1016.5
2018-10-20T06:19:44.732Z,1016.5
2018-10-20T06:20:46.076Z,1016.5
2018-10-20T06:21:47.517Z,1016.5
2018-10-20T06:22:48.908Z,1016.5
2018-10-20T06:23:50.301Z,1016.5
2018-10-20T06:24:51.719Z,1016.5
2018-10-20T06:25:53.122Z,1016.5
2018-10-20T06:26:54.517Z,1016.4
2018-10-20T06:27:55.916Z,1016.5
2018-10-20T06:28:57.305Z,1016.5
2018-10-20T06:29:58.691Z,1016.5
2018-10-20T06:31:00.097Z,1016.5
2018-10-20T06:32:01.537Z,1016.5
2018-10-20T06:33:02.911Z,1016.5
2018-10-20T06:34:04.352Z,1016.6
2018-10-20T06:35:05.700Z,1016.6
2018-10-20T06:36:07.092Z,1016.6
2018-10-20T06:37:08.574Z,1016.6
2018-10-20T06:38:09.936Z,1016.7
2018-10-20T06:39:11.325Z,1016.6
2018-10-20T06:40:12.783Z,1016.6
2018-10-20T06:41:14.121Z,1016.6
2018-10-20T06:42:15.516Z,1016.7
2018-10-20T06:43:16.969Z,1016.7
2018-10-20T06:44:18.300Z,1016.7
2018-10-20T06:45:19.686Z,1016.7
2018-10-20T06:46:21.072Z,1016.8
2018-10-20T06:47:22.514Z,1016.8
2018-10-20T06:48:24.023Z,1016.8
2018-10-20T06:49:25.416Z,1016.7
2018-10-20T06:50:26.815Z,1016.8
2018-10-20T06:51:28.342Z,1016.9
2018-10-20T06:52:29.683Z,1016.9
2018-10-20T06:53:31.078Z,1017.0
2018-10-20T06:54:32.494Z,1017.0
2018-10-20T06:55:33.890Z,1017.0
2018-10-20T06:56:35.285Z,1017.1
2018-10-20T06:57:36.827Z,1017.1
2018-10-20T06:58:38.331Z,1017.1
2018-10-20T06:59:39.741Z,1017.1
2018-10-20T07:00:41.044Z,1017.0
2018-10-20T07:01:42.434Z,1017.1
2018-10-20T07:02:43.830Z,1017.1
2018-10-20T07:03:45.221Z,1017.1
2018-10-20T07:04:46.611Z,1017.1
2018-10-20T07:05:48.042Z,1017.1
2018-10-20T07:06:52.517Z,1017.1
2018-10-20T07:07:53.844Z,1017.1
2018-10-20T07:08:55.306Z,1017.1
2018-10-20T07:09:56.671Z,1017.1
2018-10-20T07:10:58.012Z,1017.1
2018-10-20T07:11:59.407Z,1017.1
2018-10-20T07:13:00.832Z,1017.2
2018-10-20T07:14:02.192Z,1017.1
2018-10-20T07:15:03.627Z,1017.1
2018-10-20T07:16:05.003Z,1017.0
2018-10-20T07:17:06.359Z,1017.0
2018-10-20T07:18:07.776Z,1017.1
2018-10-20T07:19:09.220Z,1017.1
2018-10-20T07:20:10.592Z,1017.1
2018-10-20T07:21:12.204Z,1017.1
2018-10-20T07:22:13.432Z,1017.1
2018-10-20T07:23:14.856Z,1017.3
2018-10-20T07:24:16.248Z,1017.3
2018-10-20T07:25:17.802Z,1017.3
2018-10-20T07:26:19.066Z,1017.4
2018-10-20T07:27:20.522Z,1017.4
2018-10-20T07:28:22.524Z,1017.4
2018-10-20T07:29:23.905Z,1017.4
2018-10-20T07:30:25.315Z,1017.4
2018-10-20T07:31:26.774Z,1017.3
2018-10-20T07:32:28.303Z,1017.3
2018-10-20T07:33:29.858Z,1017.4
2018-10-20T07:34:31.291Z,1017.4
2018-10-20T07:35:32.685Z,1017.4
2018-10-20T07:36:34.085Z,1017.4
2018-10-20T07:37:35.483Z,1017.3
2018-10-20T07:38:36.905Z,1017.4
2018-10-20T07:39:38.388Z,1017.3
2018-10-20T07:40:40.098Z,1017.4
2018-10-20T07:41:41.596Z,1017.3
2018-10-20T07:42:43.168Z,1017.4
2018-10-20T07:43:44.576Z,1017.4
2018-10-20T07:44:46.004Z,1017.4
2018-10-20T07:45:47.406Z,1017.5
2018-10-20T07:46:48.813Z,1017.5
2018-10-20T07:47:50.275Z,1017.5
2018-10-20T07:48:51.674Z,1017.6
2018-10-20T07:49:53.068Z,1017.6
2018-10-20T07:50:54.515Z,1017.6
2018-10-20T07:51:55.905Z,1017.6
2018-10-20T07:52:57.293Z,1017.6
2018-10-20T07:53:58.847Z,1017.7
2018-10-20T07:55:00.265Z,1017.7
2018-10-20T07:56:01.947Z,1017.7
2018-10-20T07:57:03.459Z,1017.7
2018-10-20T07:58:04.797Z,1017.7
2018-10-20T07:59:06.220Z,1017.7
2018-10-20T08:00:07.671Z,1017.8
2018-10-20T08:01:09.054Z,1017.8
2018-10-20T08:02:10.456Z,1017.8
2018-10-20T08:03:11.870Z,1017.8
2018-10-20T08:04:13.584Z,1017.8
2018-10-20T08:05:15.061Z,1017.9
2018-10-20T08:06:16.824Z,1017.8
2018-10-20T08:07:18.427Z,1017.9
2018-10-20T08:08:19.740Z,1017.9
2018-10-20T08:09:21.234Z,1017.9
2018-10-20T08:10:22.589Z,1017.9
2018-10-20T08:11:23.979Z,1017.9
2018-10-20T08:12:25.401Z,1017.9
2018-10-20T08:13:26.832Z,1017.9
2018-10-20T08:14:28.302Z,1017.9
2018-10-20T08:15:29.793Z,1018.0
2018-10-20T08:16:31.206Z,1018.0
2018-10-20T08:17:32.641Z,1018.0
2018-10-20T08:18:34.576Z,1017.9
2018-10-20T08:19:36.018Z,1018.0
2018-10-20T08:20:37.418Z,1018.0
2018-10-20T08:21:38.820Z,1018.0
2018-10-20T08:22:40.216Z,1018.1
2018-10-20T08:23:41.671Z,1018.1
2018-10-20T08:24:43.238Z,1018.2
2018-10-20T08:25:44.796Z,1018.2
2018-10-20T08:26:46.204Z,1018.2
2018-10-20T08:27:47.604Z,1018.2
2018-10-20T08:28:49.029Z,1018.3
2018-10-20T08:29:50.457Z,1018.3
2018-10-20T08:30:51.942Z,1018.2
2018-10-20T08:31:53.283Z,1018.3
2018-10-20T08:32:54.701Z,1018.3
2018-10-20T08:33:56.074Z,1018.2
2018-10-20T08:34:57.467Z,1018.2
2018-10-20T08:35:58.874Z,1018.1
2018-10-20T08:37:00.279Z,1018.1
2018-10-20T08:38:01.703Z,1018.1
2018-10-20T08:39:03.107Z,1018.2
2018-10-20T08:40:04.524Z,1018.1
2018-10-20T08:41:05.927Z,1018.2
2018-10-20T08:42:07.407Z,1018.2
2018-10-20T08:43:08.711Z,1018.2
2018-10-20T08:44:10.102Z,1018.2
2018-10-20T08:45:11.564Z,1018.2
2018-10-20T08:46:12.889Z,1018.2
2018-10-20T08:47:14.292Z,1018.2
2018-10-20T08:48:15.721Z,1018.2
2018-10-20T08:49:17.101Z,1018.3
2018-10-20T08:50:18.495Z,1018.3
2018-10-20T08:51:19.920Z,1018.3
2018-10-20T08:52:21.308Z,1018.3
2018-10-20T08:53:22.708Z,1018.3
2018-10-20T08:54:24.206Z,1018.4
2018-10-20T08:55:25.509Z,1018.4
2018-10-20T08:56:26.899Z,1018.3
2018-10-20T08:57:28.320Z,1018.3
2018-10-20T08:58:29.749Z,1018.3
2018-10-20T08:59:31.178Z,1018.3
2018-10-20T09:00:32.594Z,1018.3
2018-10-20T09:01:33.991Z,1018.3
2018-10-20T09:02:35.386Z,1018.3
2018-10-20T09:03:36.776Z,1018.3
2018-10-20T09:04:38.172Z,1018.3
2018-10-20T09:05:39.573Z,1018.3
2018-10-20T09:06:40.974Z,1018.3
2018-10-20T09:07:42.376Z,1018.3
2018-10-20T09:08:43.775Z,1018.3
2018-10-20T09:09:45.171Z,1018.3
2018-10-20T09:10:46.722Z,1018.3
2018-10-20T09:11:48.928Z,1018.3
2018-10-20T09:12:50.649Z,1018.2
2018-10-20T09:13:52.207Z,1018.2
2018-10-20T09:14:53.685Z,1018.2
2018-10-20T09:15:55.079Z,1018.2
2018-10-20T09:16:56.587Z,1018.2
2018-10-20T09:17:58.082Z,1018.2
2018-10-20T09:18:59.555Z,1018.2
2018-10-20T09:20:01.012Z,1018.2
2018-10-20T09:21:02.471Z,1018.2
2018-10-20T09:22:03.896Z,1018.2
2018-10-20T09:23:05.319Z,1018.2
2018-10-20T09:24:06.713Z,1018.3
2018-10-20T09:25:08.134Z,1018.3
2018-10-20T09:26:09.493Z,1018.3
2018-10-20T09:27:11.046Z,1018.4
2018-10-20T09:28:12.284Z,1018.4
2018-10-20T09:29:13.694Z,1018.4
2018-10-20T09:30:15.194Z,1018.4
2018-10-20T09:31:16.502Z,1018.5
2018-10-20T09:32:17.898Z,1018.5
2018-10-20T09:33:19.299Z,1018.4
2018-10-20T09:34:20.744Z,1018.5
2018-10-20T09:35:22.147Z,1018.4
2018-10-20T09:36:23.560Z,1018.5
2018-10-20T09:37:24.979Z,1018.5
2018-10-20T09:38:26.400Z,1018.5
2018-10-20T09:39:27.826Z,1018.5
2018-10-20T09:40:29.236Z,1018.5
2018-10-20T09:41:30.648Z,1018.5
2018-10-20T09:42:32.049Z,1018.5
2018-10-20T09:43:33.459Z,1018.6
2018-10-20T09:44:34.867Z,1018.6
2018-10-20T09:45:36.262Z,1018.6
2018-10-20T09:46:37.662Z,1018.6
2018-10-20T09:47:39.061Z,1018.6
2018-10-20T09:48:40.485Z,1018.6
2018-10-20T09:49:41.896Z,1018.6
2018-10-20T09:50:43.410Z,1018.7
2018-10-20T09:51:44.658Z,1018.7
2018-10-20T09:52:46.061Z,1018.7
2018-10-20T09:53:47.462Z,1018.7
2018-10-20T09:54:48.896Z,1018.7
2018-10-20T09:55:50.299Z,1018.7
2018-10-20T09:56:51.738Z,1018.7
2018-10-20T09:57:53.109Z,1018.7
2018-10-20T09:58:54.511Z,1018.7
2018-10-20T09:59:55.975Z,1018.7
2018-10-20T10:00:57.482Z,1018.7
2018-10-20T10:01:58.909Z,1018.7
2018-10-20T10:03:00.338Z,1018.6
2018-10-20T10:04:01.657Z,1018.6
2018-10-20T10:05:03.061Z,1018.6
2018-10-20T10:06:04.519Z,1018.6
2018-10-20T10:07:05.871Z,1018.6
2018-10-20T10:08:07.351Z,1018.7
2018-10-20T10:09:08.770Z,1018.5
2018-10-20T10:10:10.147Z,1018.6
2018-10-20T10:11:11.493Z,1018.4
2018-10-20T10:12:12.946Z,1018.6
2018-10-20T10:13:14.308Z,1018.6
2018-10-20T10:14:15.795Z,1018.6
2018-10-20T10:15:17.118Z,1018.6
2018-10-20T10:16:18.534Z,1018.4
2018-10-20T10:17:19.988Z,1018.5
2018-10-20T10:18:21.412Z,1018.2
2018-10-20T10:19:22.857Z,1018.4
2018-10-20T10:20:24.201Z,1018.4
2018-10-20T10:21:25.669Z,1018.5
2018-10-20T10:22:27.070Z,1018.4
2018-10-20T10:23:28.473Z,1018.5
2018-10-20T10:24:29.878Z,1018.5
2018-10-20T10:25:31.340Z,1018.4
2018-10-20T10:26:32.706Z,1018.5
2018-10-20T10:27:34.109Z,1018.5
2018-10-20T10:28:35.538Z,1018.5
2018-10-20T10:29:37.062Z,1018.5
2018-10-20T10:30:38.554Z,1018.5
2018-10-20T10:31:39.960Z,1018.4
2018-10-20T10:32:41.362Z,1018.4
2018-10-20T10:33:42.762Z,1018.4
2018-10-20T10:34:44.199Z,1018.4
2018-10-20T10:35:45.601Z,1018.4
2018-10-20T10:36:47.003Z,1018.3
2018-10-20T10:37:48.437Z,1018.3
2018-10-20T10:38:49.845Z,1018.3
2018-10-20T10:39:51.257Z,1018.2
2018-10-20T10:40:52.707Z,1018.3
2018-10-20T10:41:54.112Z,1018.3
2018-10-20T10:42:55.484Z,1018.2
2018-10-20T10:43:56.919Z,1018.1
2018-10-20T10:44:58.330Z,1018.3
2018-10-20T10:45:59.755Z,1018.3
2018-10-20T10:47:01.265Z,1018.3
2018-10-20T10:48:02.705Z,1018.1
2018-10-20T10:49:04.123Z,1018.1
2018-10-20T10:50:05.519Z,1018.2
2018-10-20T10:51:06.909Z,1018.2
2018-10-20T10:52:08.321Z,1018.2
2018-10-20T10:53:09.727Z,1018.3
2018-10-20T10:54:11.229Z,1018.3
2018-10-20T10:55:12.537Z,1018.3
2018-10-20T10:56:13.946Z,1018.2
2018-10-20T10:57:15.356Z,1018.2
2018-10-20T10:58:16.845Z,1018.1
2018-10-20T10:59:18.255Z,1018.1
2018-10-20T11:00:19.750Z,1018.1
2018-10-20T11:01:21.063Z,1018.1
2018-10-20T11:02:22.492Z,1018.1
2018-10-20T11:03:23.872Z,1018.0
2018-10-20T11:04:25.272Z,1018.0
2018-10-20T11:05:26.676Z,1018.0
2018-10-20T11:06:28.079Z,1018.0
2018-10-20T11:07:29.484Z,1018.0
2018-10-20T11:08:30.887Z,1018.0
2018-10-20T11:09:32.290Z,1018.0
2018-10-20T11:10:33.756Z,1018.0
2018-10-20T11:11:35.103Z,1018.0
2018-10-20T11:12:36.516Z,1017.9
2018-10-20T11:13:37.920Z,1018.0
2018-10-20T11:14:39.321Z,1018.0
2018-10-20T11:15:40.729Z,1018.0
2018-10-20T11:16:42.161Z,1018.0
2018-10-20T11:17:43.531Z,1018.0
2018-10-20T11:18:44.936Z,1018.1
2018-10-20T11:19:46.362Z,1018.1
2018-10-20T11:20:47.768Z,1018.1
2018-10-20T11:21:49.171Z,1018.1
2018-10-20T11:22:50.598Z,1018.1
2018-10-20T11:23:51.976Z,1018.1
2018-10-20T11:24:53.378Z,1018.1
2018-10-20T11:25:54.779Z,1018.1
2018-10-20T11:26:56.183Z,1018.0
2018-10-20T11:27:57.586Z,1018.0
2018-10-20T11:28:58.993Z,1018.0
2018-10-20T11:30:00.409Z,1018.0
2018-10-20T11:31:01.841Z,1018.0
2018-10-20T11:32:03.191Z,1018.0
2018-10-20T11:33:04.624Z,1018.0
2018-10-20T11:34:06.091Z,1018.0
2018-10-20T11:35:07.495Z,1018.0
2018-10-20T11:36:08.919Z,1018.1
2018-10-20T11:37:10.305Z,1018.1
2018-10-20T11:38:11.712Z,1018.1
2018-10-20T11:39:13.110Z,1018.0
2018-10-20T11:40:14.516Z,1018.0
2018-10-20T11:41:15.916Z,1018.0
2018-10-20T11:42:17.422Z,1018.0
2018-10-20T11:43:18.721Z,1018.0
2018-10-20T11:44:20.127Z,1017.9
2018-10-20T11:45:21.530Z,1017.9
2018-10-20T11:46:22.927Z,1017.9
2018-10-20T11:47:24.325Z,1018.0
2018-10-20T11:48:25.728Z,1018.0
2018-10-20T11:49:27.128Z,1018.0
2018-10-20T11:50:28.568Z,1018.0
2018-10-20T11:51:29.938Z,1018.1
2018-10-20T11:52:31.339Z,1018.1
2018-10-20T11:53:32.733Z,1018.0
2018-10-20T11:54:34.139Z,1018.0
2018-10-20T11:55:35.565Z,1018.0
2018-10-20T11:56:36.977Z,1018.1
2018-10-20T11:57:38.423Z,1018.1
2018-10-20T11:58:39.769Z,1018.0
2018-10-20T11:59:41.165Z,1017.9
2018-10-20T12:00:42.561Z,1017.9
2018-10-20T12:01:43.958Z,1017.9
2018-10-20T12:02:45.360Z,1017.9
2018-10-20T12:03:46.762Z,1017.9
2018-10-20T12:04:48.162Z,1017.9
2018-10-20T12:05:49.559Z,1017.9
2018-10-20T12:06:50.959Z,1017.8
2018-10-20T12:07:52.362Z,1017.8
2018-10-20T12:08:53.766Z,1017.8
2018-10-20T12:09:55.160Z,1017.8
2018-10-20T12:10:56.561Z,1017.8
2018-10-20T12:11:58.021Z,1017.8
2018-10-20T12:12:59.361Z,1017.8
2018-10-20T12:14:00.801Z,1017.8
2018-10-20T12:15:02.164Z,1017.8
2018-10-20T12:16:03.564Z,1017.8
2018-10-20T12:17:04.963Z,1017.8
2018-10-20T12:18:06.412Z,1017.8
2018-10-20T12:19:07.769Z,1017.8
2018-10-20T12:20:09.329Z,1017.8
2018-10-20T12:21:10.798Z,1017.8
2018-10-20T12:22:12.194Z,1017.7
2018-10-20T12:23:13.594Z,1017.7
2018-10-20T12:24:15.090Z,1017.7
2018-10-20T12:25:16.394Z,1017.7
2018-10-20T12:26:17.801Z,1017.7
2018-10-20T12:27:19.220Z,1017.7
2018-10-20T12:28:20.664Z,1017.7
2018-10-20T12:29:22.020Z,1017.7
2018-10-20T12:30:23.414Z,1017.6
2018-10-20T12:31:24.812Z,1017.7
2018-10-20T12:32:26.212Z,1017.6
2018-10-20T12:33:27.616Z,1017.7
2018-10-20T12:34:29.007Z,1017.6
2018-10-20T12:35:30.403Z,1017.6
2018-10-20T12:36:31.795Z,1017.6
2018-10-20T12:37:33.198Z,1017.5
2018-10-20T12:38:34.592Z,1017.5
2018-10-20T12:39:35.992Z,1017.5
2018-10-20T12:40:37.392Z,1017.4
2018-10-20T12:41:38.796Z,1017.4
2018-10-20T12:42:40.191Z,1017.4
2018-10-20T12:43:41.588Z,1017.4
2018-10-20T12:44:42.982Z,1017.4
2018-10-20T12:45:44.377Z,1017.3